Time;durP1;ratioP1;P1;durP2;ratioP2;P2;SDS_P1;SDS_P2;PMS_P1;PMS_P2;Temp;Humidity;BMP_temperature;BMP_pressure;BME280_temperature;BME280_humidity;BME280_pressure;Samples;Min_cycle;Max_cycle;Signal;HPM_P1;HPM_P2
2021/09/26 00:02:27;;;;;;;24.00;15.63;;;16.10;99.90;;;;;;4426605;32;20138;-60
2021/09/26 00:05:20;;;;;;;21.80;15.33;;;16.10;99.90;;;;;;4427537;32;20146;-62
2021/09/26 00:07:49;;;;;;;24.47;15.53;;;16.10;99.90;;;;;;4427846;32;20189;-64
2021/09/26 00:10:28;;;;;;;23.07;15.60;;;16.10;99.90;;;;;;4426980;32;20155;-64
2021/09/26 00:13:06;;;;;;;24.63;15.80;;;16.10;99.90;;;;;;4425064;32;20146;-63
2021/09/26 00:15:46;;;;;;;22.63;15.97;;;16.10;99.90;;;;;;4427345;32;20171;-64
2021/09/26 00:18:37;;;;;;;24.67;16.33;;;16.10;99.90;;;;;;4425395;32;20135;-64
2021/09/26 00:21:42;;;;;;;23.70;15.17;;;16.00;99.90;;;;;;4426967;32;20155;-64
2021/09/26 00:24:29;;;;;;;23.10;15.23;;;16.00;99.90;;;;;;4427118;32;20176;-63
2021/09/26 00:27:28;;;;;;;21.93;14.73;;;16.00;99.90;;;;;;4425334;32;20194;-64
2021/09/26 00:30:14;;;;;;;24.20;15.90;;;16.00;99.90;;;;;;4426647;32;20211;-64
2021/09/26 00:32:50;;;;;;;24.17;16.47;;;16.00;99.90;;;;;;4426398;32;20154;-64
2021/09/26 00:35:52;;;;;;;23.20;15.23;;;15.90;99.90;;;;;;4426934;32;20213;-64
2021/09/26 00:38:37;;;;;;;26.10;17.10;;;15.90;99.90;;;;;;4424678;32;20139;-64
2021/09/26 00:41:23;;;;;;;23.47;15.30;;;15.90;99.90;;;;;;4426583;32;20567;-64
2021/09/26 00:44:00;;;;;;;24.47;15.37;;;15.80;99.90;;;;;;4426963;32;20139;-64
2021/09/26 00:46:42;;;;;;;23.97;16.33;;;15.80;99.90;;;;;;4425129;32;20414;-64
2021/09/26 00:49:43;;;;;;;25.60;15.90;;;15.80;99.90;;;;;;4424439;32;20404;-65
2021/09/26 00:52:29;;;;;;;21.83;14.53;;;15.80;99.90;;;;;;4428178;32;20219;-65
2021/09/26 00:55:35;;;;;;;21.73;14.63;;;15.80;99.90;;;;;;4424776;32;20147;-65
2021/09/26 00:58:16;;;;;;;20.57;13.97;;;15.80;99.90;;;;;;4432406;32;20534;-65
2021/09/26 01:01:06;;;;;;;22.63;13.27;;;15.90;99.90;;;;;;4424811;32;20170;-65
2021/09/26 01:03:49;;;;;;;22.43;14.13;;;15.90;99.90;;;;;;4426413;32;20174;-65
2021/09/26 01:06:43;;;;;;;21.20;14.17;;;15.90;99.90;;;;;;4425154;32;20147;-64
2021/09/26 01:09:38;;;;;;;21.03;13.30;;;15.90;99.90;;;;;;4426399;32;20187;-64
2021/09/26 01:12:27;;;;;;;21.37;13.03;;;15.80;99.90;;;;;;4424311;32;20477;-65
2021/09/26 01:15:58;;;;;;;20.67;13.97;;;15.80;99.90;;;;;;4424417;32;20154;-66
2021/09/26 01:19:00;;;;;;;18.73;12.20;;;15.80;99.90;;;;;;4423622;32;20216;-65
2021/09/26 01:21:51;;;;;;;18.87;12.87;;;15.70;99.90;;;;;;4423952;32;20196;-64
2021/09/26 01:24:46;;;;;;;22.17;13.50;;;15.70;99.90;;;;;;4426108;32;20163;-64
2021/09/26 01:27:51;;;;;;;21.43;13.37;;;15.60;99.90;;;;;;4424103;32;20139;-64
2021/09/26 01:30:40;;;;;;;18.93;12.57;;;15.50;99.90;;;;;;4426127;32;20169;-64
2021/09/26 01:33:36;;;;;;;20.00;11.90;;;15.50;99.90;;;;;;4424517;32;20340;-64
2021/09/26 01:36:35;;;;;;;18.60;11.97;;;15.40;99.90;;;;;;4426252;32;20476;-64
2021/09/26 01:39:24;;;;;;;19.77;12.80;;;15.40;99.90;;;;;;4424310;32;20135;-65
2021/09/26 01:42:39;;;;;;;21.43;11.97;;;15.30;99.90;;;;;;4424714;32;20468;-65
2021/09/26 01:45:25;;;;;;;18.67;11.97;;;15.20;99.90;;;;;;4425560;32;20150;-64
2021/09/26 01:48:22;;;;;;;19.73;12.20;;;15.10;99.90;;;;;;4425577;32;20157;-64
2021/09/26 01:51:00;;;;;;;19.13;12.53;;;15.10;99.90;;;;;;4425407;32;20189;-64
2021/09/26 01:53:42;;;;;;;20.53;13.03;;;15.10;99.90;;;;;;4425525;32;20161;-65
2021/09/26 01:56:17;;;;;;;21.63;14.17;;;15.10;99.90;;;;;;4425622;32;20173;-64
2021/09/26 01:58:56;;;;;;;19.50;13.27;;;15.00;99.90;;;;;;4425039;32;20201;-64
2021/09/26 02:01:59;;;;;;;20.17;14.13;;;14.90;99.90;;;;;;4425742;32;20514;-65
2021/09/26 02:04:36;;;;;;;22.00;13.73;;;14.90;99.90;;;;;;4425362;32;20143;-65
2021/09/26 02:07:13;;;;;;;18.50;12.53;;;14.80;99.90;;;;;;4425527;32;20138;-64
2021/09/26 02:10:07;;;;;;;19.00;12.53;;;14.80;99.90;;;;;;4425002;32;20226;-63
2021/09/26 02:12:40;;;;;;;20.17;12.73;;;14.70;99.90;;;;;;4425545;32;20207;-65
2021/09/26 02:15:26;;;;;;;23.87;13.53;;;14.70;99.90;;;;;;4425353;32;20208;-64
2021/09/26 02:18:04;;;;;;;21.00;12.87;;;14.60;99.90;;;;;;4423536;32;20529;-64
2021/09/26 02:20:43;;;;;;;18.93;12.87;;;14.50;99.90;;;;;;4423604;32;20183;-65
2021/09/26 02:23:27;;;;;;;19.53;12.77;;;14.50;99.90;;;;;;4425467;32;20272;-63
2021/09/26 02:29:04;;;;;;;18.43;12.20;;;14.40;99.90;;;;;;4390223;32;20160;-65
2021/09/26 02:31:44;;;;;;;20.17;12.73;;;14.30;99.90;;;;;;4392589;32;20542;-63
2021/09/26 02:34:46;;;;;;;19.83;13.57;;;14.30;99.90;;;;;;4392148;32;20203;-64
2021/09/26 02:37:23;;;;;;;18.67;13.20;;;14.30;99.90;;;;;;4390667;32;20147;-65
2021/09/26 02:40:11;;;;;;;19.60;13.27;;;14.30;99.90;;;;;;4392248;32;20213;-64
2021/09/26 02:43:25;;;;;;;20.77;12.40;;;14.20;99.90;;;;;;4392269;32;20194;-63
2021/09/26 02:46:34;;;;;;;19.03;11.90;;;14.20;99.90;;;;;;4346000;33;20592;-65
2021/09/26 02:49:08;;;;;;;19.03;11.60;;;14.20;99.90;;;;;;4347923;33;20280;-64
2021/09/26 02:51:57;;;;;;;17.93;11.50;;;14.20;99.90;;;;;;4345685;33;20178;-64
2021/09/26 02:54:33;;;;;;;18.80;11.00;;;14.20;99.90;;;;;;4346128;33;20156;-64
2021/09/26 02:57:02;;;;;;;15.77;10.60;;;14.10;99.90;;;;;;4346946;33;20422;-64
2021/09/26 02:59:50;;;;;;;21.00;11.17;;;14.10;99.90;;;;;;4347611;33;20289;-64
2021/09/26 03:02:49;;;;;;;16.80;10.87;;;14.00;99.90;;;;;;4346253;33;20475;-64
2021/09/26 03:05:25;;;;;;;16.57;10.80;;;14.00;99.90;;;;;;4359049;32;20146;-64
2021/09/26 03:08:11;;;;;;;17.60;10.87;;;14.00;99.90;;;;;;4392441;32;20174;-65
2021/09/26 03:10:48;;;;;;;19.13;11.20;;;13.90;99.90;;;;;;4392598;32;20165;-64
2021/09/26 03:13:34;;;;;;;16.40;10.33;;;13.90;99.90;;;;;;4392124;32;20162;-64
2021/09/26 03:16:07;;;;;;;16.87;11.20;;;13.90;99.90;;;;;;4393149;32;20483;-64
2021/09/26 03:18:59;;;;;;;17.47;10.20;;;13.80;99.90;;;;;;4395430;32;20300;-64
2021/09/26 03:21:45;;;;;;;16.57;10.03;;;13.80;99.90;;;;;;4395281;32;20384;-64
2021/09/26 03:24:27;;;;;;;19.27;11.13;;;13.70;99.90;;;;;;4421518;32;20220;-64
2021/09/26 03:27:17;;;;;;;16.10;10.50;;;13.70;99.90;;;;;;4426297;32;20169;-64
2021/09/26 03:30:01;;;;;;;16.60;10.30;;;13.70;99.90;;;;;;4427714;32;20159;-64
2021/09/26 03:32:39;;;;;;;15.03;10.00;;;13.70;99.90;;;;;;4427825;32;20196;-65
2021/09/26 03:35:11;;;;;;;17.57;10.30;;;13.60;99.90;;;;;;4426145;32;20165;-64
2021/09/26 03:37:49;;;;;;;16.90;9.77;;;13.60;99.90;;;;;;4427517;32;20139;-64
2021/09/26 03:40:22;;;;;;;15.83;10.60;;;13.50;99.90;;;;;;4425930;32;20188;-64
2021/09/26 03:42:57;;;;;;;19.53;11.10;;;13.50;99.90;;;;;;4425789;32;20165;-63
2021/09/26 03:45:49;;;;;;;15.77;10.70;;;13.30;99.90;;;;;;4427559;32;20173;-63
2021/09/26 03:48:39;;;;;;;16.97;10.83;;;13.30;99.90;;;;;;4427462;32;20167;-64
2021/09/26 03:51:20;;;;;;;16.60;10.83;;;13.20;99.90;;;;;;4425580;32;20155;-63
2021/09/26 03:54:01;;;;;;;18.13;11.10;;;13.20;99.90;;;;;;4425832;32;20123;-63
2021/09/26 03:56:45;;;;;;;18.37;10.83;;;13.20;99.90;;;;;;4427443;32;20375;-64
2021/09/26 03:59:28;;;;;;;18.23;11.40;;;13.20;99.90;;;;;;4425524;32;20173;-64
2021/09/26 04:02:15;;;;;;;17.77;11.03;;;13.10;99.90;;;;;;4425468;32;20136;-65
2021/09/26 04:04:51;;;;;;;18.63;11.23;;;13.10;99.90;;;;;;4425672;32;20234;-64
2021/09/26 04:07:35;;;;;;;17.20;11.57;;;13.00;99.90;;;;;;4423658;32;20205;-64
2021/09/26 04:10:14;;;;;;;16.83;10.90;;;13.00;99.90;;;;;;4426658;32;20473;-64
2021/09/26 04:13:20;;;;;;;16.93;11.30;;;13.00;99.90;;;;;;4427166;32;20185;-65
2021/09/26 04:16:09;;;;;;;19.37;10.63;;;13.00;99.90;;;;;;4427305;32;20128;-64
2021/09/26 04:18:40;;;;;;;16.30;10.43;;;13.00;99.90;;;;;;4427230;32;20188;-64
2021/09/26 04:21:25;;;;;;;19.93;11.33;;;12.90;99.90;;;;;;4426644;32;20436;-64
2021/09/26 04:24:22;;;;;;;17.40;11.30;;;12.90;99.90;;;;;;4427168;32;20169;-64
2021/09/26 04:26:54;;;;;;;16.40;10.07;;;12.80;99.90;;;;;;4432703;32;20151;-64
2021/09/26 04:29:32;;;;;;;18.60;10.83;;;12.90;99.90;;;;;;4424198;32;20210;-63
2021/09/26 04:32:07;;;;;;;17.87;11.07;;;12.90;99.90;;;;;;4427069;32;20217;-63
2021/09/26 04:34:55;;;;;;;19.37;11.67;;;12.90;99.90;;;;;;4425013;32;20502;-63
2021/09/26 04:38:08;;;;;;;18.87;11.80;;;12.90;99.90;;;;;;4426176;32;20210;-65
2021/09/26 04:40:48;;;;;;;18.53;11.03;;;12.80;99.90;;;;;;4377396;32;20144;-64
2021/09/26 04:43:36;;;;;;;20.07;12.10;;;12.80;99.90;;;;;;4377314;32;20179;-65
2021/09/26 04:46:19;;;;;;;19.83;11.63;;;12.80;99.90;;;;;;4379141;32;20187;-64
2021/09/26 04:49:06;;;;;;;19.47;11.73;;;12.80;99.90;;;;;;4377678;32;20175;-64
2021/09/26 04:52:02;;;;;;;17.77;11.97;;;12.70;99.90;;;;;;4378933;32;20163;-65
2021/09/26 04:54:41;;;;;;;19.33;11.20;;;12.70;99.90;;;;;;4377208;32;20149;-64
2021/09/26 04:57:11;;;;;;;17.80;10.97;;;12.70;99.90;;;;;;4378889;32;20156;-65
2021/09/26 04:59:51;;;;;;;17.03;11.33;;;12.70;99.90;;;;;;4378935;32;20175;-64
2021/09/26 05:02:46;;;;;;;22.17;11.60;;;12.70;99.90;;;;;;4378802;32;20144;-65
2021/09/26 05:05:34;;;;;;;20.43;11.87;;;12.70;99.90;;;;;;4378646;32;20158;-63
2021/09/26 05:08:04;;;;;;;19.17;11.97;;;12.70;99.90;;;;;;4378932;32;20245;-64
2021/09/26 05:13:45;;;;;;;17.83;11.60;;;12.70;99.90;;;;;;4377620;32;20316;-64
2021/09/26 05:16:27;;;;;;;18.57;11.80;;;12.80;99.90;;;;;;4384771;32;20140;-64
2021/09/26 05:19:05;;;;;;;17.93;11.50;;;12.80;99.90;;;;;;4426418;32;20150;-64
2021/09/26 05:21:47;;;;;;;20.33;11.77;;;12.90;99.90;;;;;;4424251;32;20158;-64
2021/09/26 05:24:25;;;;;;;16.80;11.57;;;13.00;99.90;;;;;;4425852;32;20166;-64
2021/09/26 05:27:03;;;;;;;17.90;11.23;;;13.10;99.90;;;;;;4426170;32;20193;-64
2021/09/26 05:29:38;;;;;;;18.37;11.43;;;13.20;99.90;;;;;;4424013;32;20156;-64
2021/09/26 05:32:19;;;;;;;17.87;11.50;;;13.20;99.90;;;;;;4425862;32;20207;-64
2021/09/26 05:34:50;;;;;;;18.17;11.43;;;13.30;99.90;;;;;;4429789;32;20257;-64
2021/09/26 05:37:29;;;;;;;18.43;11.53;;;13.40;99.90;;;;;;4426422;32;20193;-64
2021/09/26 05:40:06;;;;;;;20.33;11.87;;;13.50;99.90;;;;;;4425110;32;20179;-63
2021/09/26 05:42:59;;;;;;;18.70;11.50;;;13.60;99.90;;;;;;4425471;32;20531;-64
2021/09/26 05:45:29;;;;;;;17.60;11.47;;;13.70;99.90;;;;;;4425676;32;20186;-64
2021/09/26 05:48:26;;;;;;;17.37;10.97;;;13.80;99.90;;;;;;4425815;32;20531;-65
2021/09/26 05:51:02;;;;;;;19.20;11.63;;;13.80;99.90;;;;;;4423819;32;20194;-64
2021/09/26 05:53:36;;;;;;;20.67;11.73;;;13.80;99.90;;;;;;4425757;32;20193;-64
2021/09/26 05:56:21;;;;;;;19.90;12.07;;;13.90;99.90;;;;;;4425590;32;20139;-64
2021/09/26 05:59:05;;;;;;;21.57;11.50;;;13.90;99.90;;;;;;4425349;32;20143;-65
2021/09/26 06:01:46;;;;;;;19.50;12.00;;;14.00;99.90;;;;;;4425738;32;20494;-65
2021/09/26 06:04:17;;;;;;;17.57;11.20;;;14.10;99.90;;;;;;4425603;32;20231;-65
2021/09/26 06:07:17;;;;;;;16.30;11.57;;;14.10;99.90;;;;;;4425711;32;20153;-63
2021/09/26 06:09:54;;;;;;;20.93;11.83;;;14.20;99.90;;;;;;4423963;32;20218;-64
2021/09/26 06:12:45;;;;;;;18.33;10.80;;;14.20;99.90;;;;;;4423836;32;20170;-64
2021/09/26 06:15:37;;;;;;;17.03;10.37;;;14.20;99.90;;;;;;4425166;32;20135;-64
2021/09/26 06:18:08;;;;;;;16.30;10.23;;;14.20;99.90;;;;;;4425265;32;20163;-64
2021/09/26 06:20:49;;;;;;;17.67;10.63;;;14.20;99.90;;;;;;4423540;32;20166;-65
2021/09/26 06:23:31;;;;;;;17.73;10.10;;;14.20;99.90;;;;;;4425055;32;20186;-65
2021/09/26 06:26:11;;;;;;;17.47;10.97;;;14.20;99.90;;;;;;4425186;32;20220;-65
2021/09/26 06:28:46;;;;;;;16.87;10.23;;;14.20;99.90;;;;;;4423970;32;20204;-64
2021/09/26 06:31:24;;;;;;;16.80;10.57;;;14.30;99.90;;;;;;4423459;32;20134;-64
2021/09/26 06:34:18;;;;;;;17.97;11.37;;;14.30;99.90;;;;;;4423373;32;20197;-64
2021/09/26 06:36:57;;;;;;;18.03;11.33;;;14.30;99.90;;;;;;4424961;32;20516;-65
2021/09/26 06:39:44;;;;;;;21.13;12.80;;;14.40;99.90;;;;;;4377844;32;20440;-65
2021/09/26 06:42:35;;;;;;;22.57;12.77;;;14.60;99.90;;;;;;4383454;32;20151;-64
2021/09/26 06:45:13;;;;;;;21.53;12.17;;;14.60;99.90;;;;;;4391020;32;20399;-65
2021/09/26 06:47:49;;;;;;;17.53;11.60;;;14.70;99.90;;;;;;4392596;32;20158;-64
2021/09/26 06:50:41;;;;;;;19.23;11.03;;;14.80;99.90;;;;;;4392422;32;20151;-63
2021/09/26 06:53:22;;;;;;;17.67;10.47;;;14.90;99.90;;;;;;4395508;32;20305;-66
2021/09/26 06:56:00;;;;;;;20.10;9.90;;;15.00;99.90;;;;;;4394110;32;20146;-64
2021/09/26 07:01:42;;;;;;;15.37;9.33;;;15.20;99.90;;;;;;4395719;32;20221;-64
2021/09/26 07:04:27;;;;;;;14.87;7.90;;;15.30;99.90;;;;;;4394780;32;20594;-66
2021/09/26 07:07:13;;;;;;;12.77;7.20;;;15.40;99.90;;;;;;4394160;32;20209;-65
2021/09/26 07:09:58;;;;;;;12.03;5.87;;;15.50;99.90;;;;;;4392917;32;20562;-64
2021/09/26 07:12:33;;;;;;;12.57;5.97;;;15.50;99.90;;;;;;4395449;32;20147;-65
2021/09/26 07:15:18;;;;;;;15.03;7.13;;;15.60;99.90;;;;;;4395379;32;20219;-64
2021/09/26 07:18:01;;;;;;;11.40;6.70;;;15.70;99.90;;;;;;4424223;32;20146;-65
2021/09/26 07:21:05;;;;;;;13.73;6.63;;;15.80;99.90;;;;;;4426138;32;20277;-66
2021/09/26 07:24:25;;;;;;;17.70;7.30;;;15.90;99.90;;;;;;4427765;32;20146;-64
2021/09/26 07:27:24;;;;;;;12.93;7.07;;;16.10;99.90;;;;;;4425111;32;20171;-65
2021/09/26 07:30:21;;;;;;;14.67;7.33;;;16.30;99.90;;;;;;4427772;32;20138;-66
2021/09/26 07:33:05;;;;;;;11.63;6.53;;;16.40;99.90;;;;;;4426105;32;20138;-65
2021/09/26 07:35:55;;;;;;;9.53;5.83;;;16.60;99.90;;;;;;4393453;32;20163;-66
2021/09/26 07:38:34;;;;;;;10.63;5.80;;;16.60;99.90;;;;;;4395385;32;20148;-65
2021/09/26 07:41:05;;;;;;;11.30;5.27;;;16.70;99.90;;;;;;4393649;32;20394;-65
2021/09/26 07:43:36;;;;;;;11.10;5.17;;;16.70;99.90;;;;;;4394369;32;20470;-64
2021/09/26 07:46:14;;;;;;;11.00;5.07;;;16.90;99.90;;;;;;4393294;32;20151;-63
2021/09/26 07:49:03;;;;;;;9.27;4.17;;;16.90;99.90;;;;;;4393524;32;20148;-64
2021/09/26 07:51:34;;;;;;;10.30;3.43;;;17.10;99.90;;;;;;4393471;32;20610;-66
2021/09/26 07:54:17;;;;;;;8.80;4.07;;;17.10;99.90;;;;;;4394859;32;20452;-65
2021/09/26 07:57:07;;;;;;;11.13;3.70;;;17.20;99.90;;;;;;4394496;32;20189;-65
2021/09/26 07:59:56;;;;;;;8.90;3.47;;;17.30;99.90;;;;;;4393855;32;20178;-64
2021/09/26 08:02:34;;;;;;;10.17;3.43;;;17.50;99.90;;;;;;4393191;32;20147;-66
2021/09/26 08:05:11;;;;;;;9.33;3.40;;;17.60;99.90;;;;;;4393455;32;20182;-65
2021/09/26 08:07:57;;;;;;;7.10;3.37;;;17.90;99.90;;;;;;4392258;32;20174;-65
2021/09/26 08:10:31;;;;;;;8.27;3.07;;;18.30;99.90;;;;;;4392773;32;20223;-65
2021/09/26 08:13:03;;;;;;;7.47;3.00;;;18.90;99.90;;;;;;4412441;32;20155;-65
2021/09/26 08:15:42;;;;;;;7.73;3.63;;;19.40;99.90;;;;;;4426803;32;20142;-66
2021/09/26 08:18:20;;;;;;;7.37;2.90;;;19.80;99.90;;;;;;4427096;32;20207;-66
2021/09/26 08:20:51;;;;;;;8.43;2.43;;;20.30;99.90;;;;;;4426811;32;20448;-66
2021/09/26 08:23:42;;;;;;;7.23;2.70;;;20.50;99.90;;;;;;4427038;32;20207;-65
2021/09/26 08:26:17;;;;;;;7.77;2.93;;;20.90;99.90;;;;;;4425055;32;20551;-64
2021/09/26 08:28:58;;;;;;;7.60;3.00;;;21.20;99.90;;;;;;4424685;32;20166;-65
2021/09/26 08:31:30;;;;;;;5.73;2.63;;;21.40;99.90;;;;;;4424917;32;20135;-66
2021/09/26 08:34:08;;;;;;;6.67;3.13;;;21.50;99.90;;;;;;4426474;32;20158;-66
2021/09/26 08:36:49;;;;;;;6.13;3.13;;;21.60;99.90;;;;;;4426587;32;20457;-66
2021/09/26 08:39:24;;;;;;;8.27;2.67;;;21.80;99.90;;;;;;4426280;32;20469;-65
2021/09/26 08:42:34;;;;;;;7.97;2.80;;;21.80;99.90;;;;;;4424676;32;20202;-65
2021/09/26 08:45:17;;;;;;;7.23;2.90;;;22.10;99.90;;;;;;4426257;32;20477;-64
2021/09/26 08:47:50;;;;;;;7.23;2.77;;;22.30;99.90;;;;;;4424785;32;20437;-65
2021/09/26 08:50:45;;;;;;;7.93;2.60;;;22.50;99.90;;;;;;4426499;32;20150;-65
2021/09/26 08:53:50;;;;;;;8.63;2.80;;;22.80;99.90;;;;;;4333340;33;20391;-65
2021/09/26 08:56:31;;;;;;;6.43;2.60;;;22.90;99.90;;;;;;4303403;33;20158;-65
2021/09/26 08:59:07;;;;;;;9.30;3.00;;;23.20;99.90;;;;;;4302937;33;20220;-65
2021/09/26 09:01:49;;;;;;;6.27;2.50;;;23.60;99.90;;;;;;4304894;33;20145;-65
2021/09/26 09:04:47;;;;;;;7.93;2.53;;;23.90;99.90;;;;;;4305208;33;20169;-65
2021/09/26 09:07:29;;;;;;;7.37;2.73;;;24.30;99.90;;;;;;4274806;33;20153;-65
2021/09/26 09:10:09;;;;;;;5.93;2.53;;;24.60;99.90;;;;;;4274390;33;20146;-65
2021/09/26 09:12:53;;;;;;;6.40;2.83;;;24.80;99.90;;;;;;4275105;33;20229;-65
2021/09/26 09:15:35;;;;;;;7.22;2.80;;;24.80;99.90;;;;;;4274362;33;20158;-66
2021/09/26 09:18:06;;;;;;;7.72;2.40;;;25.20;99.90;;;;;;4276015;33;20188;-65
2021/09/26 09:20:49;;;;;;;4.35;2.60;;;25.60;99.90;;;;;;4274687;33;20461;-64
2021/09/26 09:23:32;;;;;;;6.05;2.37;;;25.90;99.90;;;;;;4274090;33;20523;-63
2021/09/26 09:26:15;;;;;;;4.32;2.33;;;26.00;99.90;;;;;;4274006;33;20470;-62
2021/09/26 09:28:52;;;;;;;5.05;2.33;;;25.80;99.90;;;;;;4273795;33;20508;-63
2021/09/26 09:31:24;;;;;;;5.50;2.80;;;26.00;99.90;;;;;;4322202;33;20149;-65
2021/09/26 09:34:07;;;;;;;6.03;2.80;;;26.10;99.90;;;;;;4384559;32;20155;-62
2021/09/26 09:36:46;;;;;;;7.95;2.85;;;26.10;98.80;;;;;;4406908;32;20164;-63
2021/09/26 09:39:36;;;;;;;5.07;2.65;;;25.70;98.90;;;;;;4407074;32;20268;-63
2021/09/26 09:42:26;;;;;;;4.87;2.67;;;25.20;98.60;;;;;;4408083;32;20567;-63
2021/09/26 09:45:22;;;;;;;6.90;2.60;;;24.50;99.70;;;;;;4406198;32;20182;-62
2021/09/26 09:54:15;;;;;;;5.57;2.80;;;23.50;99.90;;;;;;4317402;33;20558;-62
2021/09/26 09:56:57;;;;;;;7.15;2.33;;;23.30;99.90;;;;;;4318592;33;20145;-62
2021/09/26 09:59:39;;;;;;;4.90;2.30;;;22.90;99.90;;;;;;4316874;33;20157;-63
2021/09/26 10:02:15;;;;;;;6.33;2.47;;;22.50;99.90;;;;;;4317777;33;20176;-63
2021/09/26 10:04:52;;;;;;;4.82;2.35;;;22.30;99.90;;;;;;4318820;33;20511;-63
2021/09/26 10:07:28;;;;;;;4.20;2.60;;;22.20;99.90;;;;;;4317227;33;20503;-62
2021/09/26 10:10:18;;;;;;;3.53;2.20;;;22.00;99.90;;;;;;4318797;33;20142;-60
2021/09/26 10:13:06;;;;;;;4.03;2.13;;;21.90;99.90;;;;;;4318174;33;20416;-63
2021/09/26 10:15:42;;;;;;;4.37;2.20;;;21.60;99.90;;;;;;4318744;33;20157;-61
2021/09/26 10:18:12;;;;;;;4.17;2.27;;;21.60;99.90;;;;;;4317214;33;20163;-61
2021/09/26 10:21:03;;;;;;;5.87;2.50;;;21.70;99.90;;;;;;4275386;33;20221;-61
2021/09/26 10:23:40;;;;;;;5.07;2.40;;;21.90;99.90;;;;;;4275062;33;20423;-62
2021/09/26 10:26:28;;;;;;;6.03;2.70;;;22.00;99.90;;;;;;4273394;33;20169;-62
2021/09/26 10:29:13;;;;;;;4.93;2.53;;;22.30;99.90;;;;;;4340762;33;20151;-62
2021/09/26 10:31:50;;;;;;;6.17;2.80;;;22.80;99.90;;;;;;4347966;33;20145;-64
2021/09/26 10:34:44;;;;;;;4.43;2.33;;;23.10;99.90;;;;;;4347965;33;20164;-63
2021/09/26 10:37:18;;;;;;;7.90;3.13;;;23.40;99.90;;;;;;4346775;33;20523;-62
2021/09/26 10:39:56;;;;;;;6.73;3.00;;;23.60;99.90;;;;;;4347982;33;20148;-62
2021/09/26 10:42:37;;;;;;;5.57;2.70;;;23.50;99.90;;;;;;4347296;33;20145;-62
2021/09/26 10:45:28;;;;;;;6.03;2.90;;;23.50;99.90;;;;;;4347140;33;20148;-62
2021/09/26 10:48:01;;;;;;;5.93;2.90;;;23.60;99.90;;;;;;4348075;33;20137;-63
2021/09/26 10:50:42;;;;;;;6.50;2.80;;;23.50;99.90;;;;;;4348109;33;20509;-63
2021/09/26 10:53:17;;;;;;;7.47;3.03;;;23.70;99.90;;;;;;4347800;33;20258;-62
2021/09/26 10:55:58;;;;;;;6.30;3.10;;;24.10;99.90;;;;;;4365000;32;20220;-62
2021/09/26 10:58:32;;;;;;;6.27;2.80;;;24.70;99.90;;;;;;4420813;32;20165;-62
2021/09/26 11:01:04;;;;;;;5.00;2.87;;;25.30;99.30;;;;;;4425139;32;20202;-62
2021/09/26 11:03:43;;;;;;;4.70;2.65;;;26.00;99.10;;;;;;4424934;32;20496;-62
2021/09/26 11:06:33;;;;;;;6.57;2.97;;;26.80;97.20;;;;;;4423480;32;20465;-62
2021/09/26 11:09:13;;;;;;;7.30;2.90;;;26.90;95.10;;;;;;4424277;32;20127;-62
2021/09/26 11:11:57;;;;;;;5.18;2.55;;;26.60;94.70;;;;;;4424632;32;20162;-62
2021/09/26 11:14:32;;;;;;;4.80;2.78;;;26.50;95.60;;;;;;4424579;32;20175;-62
2021/09/26 11:17:03;;;;;;;6.55;2.90;;;26.50;95.10;;;;;;4424747;32;20516;-62
2021/09/26 11:19:59;;;;;;;6.90;2.95;;;27.00;95.00;;;;;;4424945;32;20127;-61
2021/09/26 11:22:33;;;;;;;4.22;2.75;;;27.20;92.00;;;;;;4422751;32;20163;-61
2021/09/26 11:25:21;;;;;;;7.30;3.00;;;26.90;92.40;;;;;;4425133;32;20143;-62
2021/09/26 11:28:26;;;;;;;4.32;2.70;;;26.60;93.20;;;;;;4424495;32;20194;-62
2021/09/26 11:31:05;;;;;;;6.47;3.12;;;26.20;92.30;;;;;;4425053;32;20143;-62
2021/09/26 11:33:56;;;;;;;7.03;2.70;;;26.60;93.10;;;;;;4430195;32;20506;-61
2021/09/26 11:37:11;;;;;;;4.82;2.42;;;27.20;92.00;;;;;;4439175;32;20139;-62
2021/09/26 11:40:17;;;;;;;5.35;2.70;;;28.10;90.90;;;;;;4441107;32;20135;-62
2021/09/26 11:42:57;;;;;;;7.40;2.60;;;28.80;86.20;;;;;;4379112;32;20151;-61
2021/09/26 11:45:50;;;;;;;4.65;2.50;;;27.90;85.30;;;;;;4333761;33;20280;-62
2021/09/26 11:48:40;;;;;;;4.57;2.50;;;26.90;87.70;;;;;;4332094;33;20177;-62
2021/09/26 11:51:16;;;;;;;6.18;2.60;;;26.20;90.00;;;;;;4333468;33;20527;-63
2021/09/26 11:53:59;;;;;;;5.22;2.60;;;25.60;90.90;;;;;;4335254;33;20472;-62
2021/09/26 11:56:38;;;;;;;5.00;2.60;;;25.20;91.50;;;;;;4333733;33;20147;-63
2021/09/26 11:59:21;;;;;;;5.78;2.90;;;24.80;92.30;;;;;;4334590;33;20144;-62
2021/09/26 12:01:54;;;;;;;6.22;2.80;;;24.80;92.80;;;;;;4334007;33;20145;-62
2021/09/26 12:04:25;;;;;;;6.25;2.60;;;26.10;91.60;;;;;;4335173;33;20248;-62
2021/09/26 12:07:00;;;;;;;6.18;2.83;;;27.80;89.30;;;;;;4335247;33;20576;-63
2021/09/26 12:09:55;;;;;;;4.70;2.72;;;29.00;83.70;;;;;;4346288;32;20143;-62
2021/09/26 12:12:36;;;;;;;6.18;3.03;;;30.60;79.70;;;;;;4376374;32;20152;-62
2021/09/26 12:15:14;;;;;;;5.03;3.00;;;31.70;74.80;;;;;;4370192;32;20157;-67
2021/09/26 12:18:15;;;;;;;4.32;2.40;;;32.40;70.00;;;;;;4379396;32;20157;-62
2021/09/26 12:20:50;;;;;;;4.85;2.60;;;33.10;66.10;;;;;;4426719;32;20405;-61
2021/09/26 12:23:19;;;;;;;3.92;2.40;;;32.60;65.20;;;;;;4425218;32;20139;-62
2021/09/26 12:26:07;;;;;;;4.40;2.40;;;31.50;65.70;;;;;;4427044;32;20165;-62
2021/09/26 12:28:43;;;;;;;3.78;2.30;;;30.60;66.30;;;;;;4425763;32;20151;-62
2021/09/26 12:31:16;;;;;;;4.95;2.78;;;30.50;69.00;;;;;;4426533;32;20143;-62
2021/09/26 12:33:54;;;;;;;4.65;2.47;;;30.20;68.70;;;;;;4424529;32;20231;-62
2021/09/26 12:36:44;;;;;;;3.42;2.37;;;30.20;69.20;;;;;;4425326;32;20166;-62
2021/09/26 12:39:39;;;;;;;3.70;2.12;;;30.10;69.10;;;;;;4426029;32;20169;-62
2021/09/26 12:42:20;;;;;;;3.67;2.28;;;30.10;67.20;;;;;;4425691;32;20147;-61
2021/09/26 12:45:18;;;;;;;4.22;2.28;;;30.70;67.20;;;;;;4426446;32;20213;-63
2021/09/26 12:47:55;;;;;;;4.25;2.03;;;31.50;65.60;;;;;;4431031;32;20185;-63
2021/09/26 12:50:48;;;;;;;3.90;2.03;;;31.90;63.30;;;;;;4429596;32;20178;-62
2021/09/26 12:53:25;;;;;;;3.80;2.12;;;31.50;63.00;;;;;;4425002;32;20163;-62
2021/09/26 12:55:55;;;;;;;6.62;2.20;;;30.80;64.20;;;;;;4426498;32;20187;-62
2021/09/26 12:58:34;;;;;;;5.00;2.47;;;29.90;65.40;;;;;;4424822;32;20445;-62
2021/09/26 13:01:22;;;;;;;4.87;2.30;;;28.70;67.80;;;;;;4425751;32;20142;-62
2021/09/26 13:04:03;;;;;;;4.75;2.40;;;27.70;70.70;;;;;;4424871;32;20162;-62
2021/09/26 13:06:35;;;;;;;4.75;2.50;;;26.90;73.20;;;;;;4424957;32;20131;-62
2021/09/26 13:09:14;;;;;;;5.90;2.40;;;26.30;74.90;;;;;;4424811;32;20218;-63
2021/09/26 13:11:42;;;;;;;4.87;2.42;;;25.80;76.70;;;;;;4425427;32;20138;-64
2021/09/26 13:14:18;;;;;;;4.35;2.30;;;25.40;78.20;;;;;;4425525;32;20423;-62
2021/09/26 13:16:49;;;;;;;4.97;2.42;;;25.10;79.00;;;;;;4425644;32;20191;-61
2021/09/26 13:19:43;;;;;;;3.60;2.30;;;25.00;82.20;;;;;;4428128;32;20522;-62
2021/09/26 13:22:15;;;;;;;7.40;2.85;;;24.60;82.70;;;;;;4427879;32;20153;-62
2021/09/26 13:24:57;;;;;;;5.07;2.55;;;24.30;85.20;;;;;;4424328;32;20127;-62
2021/09/26 13:27:30;;;;;;;3.80;2.20;;;24.10;86.40;;;;;;4426138;32;20161;-62
2021/09/26 13:30:15;;;;;;;10.10;2.58;;;23.90;88.00;;;;;;4426080;32;20183;-63
2021/09/26 13:32:53;;;;;;;5.97;2.40;;;23.70;90.10;;;;;;4426077;32;20156;-64
2021/09/26 13:35:24;;;;;;;5.70;2.33;;;23.60;90.30;;;;;;4426145;32;20135;-64
2021/09/26 13:38:13;;;;;;;4.03;2.30;;;23.30;90.00;;;;;;4424055;32;20139;-64
2021/09/26 13:40:43;;;;;;;4.37;2.20;;;23.10;90.60;;;;;;4425946;32;20139;-62
2021/09/26 13:43:40;;;;;;;4.50;2.37;;;22.90;91.30;;;;;;4425487;32;20195;-64
2021/09/26 13:46:09;;;;;;;5.73;2.30;;;22.70;92.50;;;;;;4424099;32;20178;-62
2021/09/26 13:48:39;;;;;;;4.43;2.33;;;22.60;92.40;;;;;;4426253;32;20200;-64
2021/09/26 13:51:09;;;;;;;4.63;2.50;;;22.50;93.30;;;;;;4432486;32;20530;-62
2021/09/26 13:53:37;;;;;;;6.03;2.40;;;22.40;92.90;;;;;;4425657;32;20415;-63
2021/09/26 13:56:05;;;;;;;5.33;2.40;;;22.30;93.60;;;;;;4425783;32;20172;-63
2021/09/26 13:58:32;;;;;;;5.13;2.47;;;22.20;93.50;;;;;;4425534;32;20412;-63
2021/09/26 14:01:01;;;;;;;4.90;2.27;;;22.30;93.40;;;;;;4425185;32;20128;-63
2021/09/26 14:03:28;;;;;;;4.83;2.40;;;22.30;93.70;;;;;;4423976;32;20166;-63
2021/09/26 14:05:59;;;;;;;5.40;2.30;;;22.40;93.90;;;;;;4423762;32;20162;-63
2021/09/26 14:08:26;;;;;;;5.93;2.10;;;22.50;94.10;;;;;;4423693;32;20517;-63
2021/09/26 14:10:53;;;;;;;5.57;2.80;;;22.50;94.10;;;;;;4425380;32;20131;-63
2021/09/26 14:13:20;;;;;;;5.87;2.43;;;22.40;93.40;;;;;;4423839;32;20452;-63